Terminal Aerodrome Forecast
Issued by NWS

Home | Current Version | Previous Version | Text Only | Print | Product List | Glossary Off
Versions: 1 2 3 4 5 6 7 8 9 10 11 12 13 14 15 16 17 18 19 20 21 22 23 24 25 26 27 28 29 30 31 32 33 34 35 36 37 38 39 40 41 42 43 44 45 46 47
000 FTUS41 KGYX 272054 AAB TAFMHT TAF AMD KMHT 272054Z 2721/2818 34016G26KT 1/2SM SN BLSN OVC012 TEMPO 2721/2801 1/4SM +SN BLSN VV006 FM280100 34014G20KT 3SM -SN BR OVC015 FM281100 33010KT P6SM OVC050=

USA.gov is the U.S. government's official web portal to all federal, state and local government web resources and services.